Enter the Airport ICAO Code

Search by Airport or City

Current Weather

SAZN | Presidente Perón International Airport

Neuquén, Neuquén, Argentina

Last Update 26 Minutes Ago

Clear Sky

Temperature of 10 ºC

Moderate Winds from West

Temperature

10 ºC

Dew Point Temperature

03 ºC Below Zero

Relative Humidity

39.96 %

Wind Direction

West (270º, Without Significant Variations)

Wind Velocity

20 km/h (11 kt)

Gusts

None

Visibility

No Significant Reductions

Sea Level Pressure

1014 hPa (Hectopascals)

Layers of Clouds

None

METAR SAZN 121500Z 27011KT CAVOK 10/M03 Q1014

Weather Forecast

SAZN | Presidente Perón International Airport

Neuquén, Neuquén, Argentina

Forecast valid for the next 21 Hours

From now on it is expected:

Clear Sky

Moderate Winds from West

In 4 hours it is expected the begining of 6 hours with intermittent periods of:

Moderate Winds from West with Gusts

Maximum Temperature

16 ºC in 3 Hours

Minimum Temperature

00 ºC in -3 Hours

TAF SAZN 121100Z 1212/1312 25010KT CAVOK TX16/1218Z TN00/1212Z TEMPO 1219/1301 25015G25KT